Flight Track Log - Related Links

Times and Time Zones

All times are in EDT time to prevent confusion due to time zone crossing. See the EJA871 flight status page for this flight to view local times or setup timezone preferences in your user account.

Time Position Orientation Groundspeed Altitude Reporting Facility
EDT Latitude Longitude Course Direction KTS MPH feet Rate Location/Type
Mon 02:13:01 PM 35.5906 -106.1067 270° West 191 220 7,600  Level Albuquerque Center
Mon 02:14:03 PM 35.5378 -106.1594 219° Southwest 212 244 11,300 3,000 Climbing Albuquerque Center
Mon 02:15:05 PM 35.5319 -106.2381 265° West 228 262 13,800 2,081 Climbing Albuquerque Center
Mon 02:16:07 PM 35.5317 -106.3200 270° West 259 298 15,600 1,854 Climbing Albuquerque Center
Mon 02:17:08 PM 35.5306 -106.4200 269° West 289 333 17,600 2,049 Climbing Albuquerque Center
Mon 02:18:00 PM 35.5625 -106.9353 270° West  Level Estimated
Mon 02:18:10 PM 35.5278 -106.5433 268° West 296 341 19,800  Level Albuquerque Center
Mon 02:19:12 PM 35.5267 -106.6453 269° West 299 344 21,800 1,839 Climbing Albuquerque Center
Mon 02:20:14 PM 35.5253 -106.7494 269° West 305 351 23,600 1,645 Climbing Albuquerque Center
Mon 02:21:16 PM 35.5233 -106.8636 269° West 313 360 25,200 1,500 Climbing Albuquerque Center
Mon 02:22:18 PM 35.5219 -106.9744 269° West 323 372 26,700 1,512 Climbing Albuquerque Center
Mon 02:23:19 PM 35.5208 -107.0950 269° West 328 377 28,300 1,561 Climbing Albuquerque Center
Mon 02:24:21 PM 35.5081 -107.2133 262° West 337 388 29,900 1,452 Climbing Albuquerque Center
Mon 02:25:23 PM 35.4764 -107.3147 249° West 333 383 31,300 1,403 Climbing Albuquerque Center
Mon 02:26:25 PM 35.4436 -107.4169 249° West 335 386 32,800 1,317 Climbing Albuquerque Center
Mon 02:27:26 PM 35.4072 -107.5361 249° West 334 384 34,000 585 Climbing Albuquerque Center
Mon 02:28:28 PM 35.3753 -107.6406 249° West 338 389 34,000  Level Albuquerque Center
Mon 02:29:30 PM 35.3389 -107.7642 250° West 343 395 34,000 194 Level Albuquerque Center
Mon 02:30:32 PM 35.3056 -107.8733 250° West 350 403 34,400 1,065 Climbing Albuquerque Center
Mon 02:31:34 PM 35.2750 -107.9925 253° West 337 388 36,200 1,355 Climbing Albuquerque Center
Mon 02:32:36 PM 35.2511 -108.0900 253° West 321 369 37,200 878 Climbing Albuquerque Center
Mon 02:33:37 PM 35.2292 -108.1858 254° West 311 358 38,000 390 Climbing Albuquerque Center
Mon 02:34:39 PM 35.2217 -108.3083 266° West 323 372 38,000  Level Albuquerque Center
Mon 02:35:41 PM 35.2186 -108.4200 268° West 337 388 38,000  Level Albuquerque Center
Mon 02:36:43 PM 35.2161 -108.5481 269° West 338 389 38,000  Level Albuquerque Center
Mon 02:37:44 PM 35.2136 -108.6592 268° West 338 389 38,000  Level Albuquerque Center
Mon 02:38:46 PM 35.2106 -108.7894 268° West 341 392 38,000  Level Albuquerque Center
Mon 02:39:48 PM 35.2078 -108.9011 268° West 342 394 38,000  Level Albuquerque Center
Mon 02:40:50 PM 35.2047 -109.0133 268° West 343 395 38,000  Level Albuquerque Center
Mon 02:41:51 PM 35.2022 -109.1431 269° West 342 394 38,000  Level Albuquerque Center
Mon 02:42:54 PM 35.1986 -109.2556 268° West 343 395 38,000  Level Albuquerque Center
Mon 02:43:55 PM 35.1947 -109.3861 268° West 344 396 38,000  Level Albuquerque Center
Mon 02:44:57 PM 35.1911 -109.4981 268° West 344 396 38,000  Level Albuquerque Center
Mon 02:45:59 PM 35.1886 -109.6111 268° West 346 398 38,000  Level Albuquerque Center
Mon 02:47:00 PM 35.1842 -109.7414 268° West 344 396 38,000  Level Albuquerque Center
Mon 02:48:02 PM 35.1808 -109.8564 268° West 350 403 38,000  Level Albuquerque Center
Mon 02:49:04 PM 35.1772 -109.9875 268° West 347 399 38,000  Level Albuquerque Center
Mon 02:50:06 PM 35.1731 -110.1003 267° West 347 399 38,000  Level Albuquerque Center
Mon 02:51:08 PM 35.1681 -110.2306 267° West 346 398 38,000  Level Albuquerque Center
Mon 02:52:09 PM 35.1622 -110.3428 266° West 344 396 38,000  Level Albuquerque Center
Mon 02:53:11 PM 35.1569 -110.4758 267° West 348 400 38,000  Level Albuquerque Center
Mon 02:54:13 PM 35.1533 -110.5894 268° West 350 403 38,000  Level Albuquerque Center
Mon 02:55:15 PM 35.1472 -110.7025 266° West 349 402 38,000  Level Albuquerque Center
Mon 02:56:17 PM 35.1419 -110.8358 267° West 351 404 38,000  Level Albuquerque Center
Mon 02:57:19 PM 35.1381 -110.9506 268° West 352 405 38,000  Level Albuquerque Center
Mon 02:58:21 PM 35.1328 -111.0867 267° West 355 409 38,000  Level Albuquerque Center
Mon 02:59:22 PM 35.1297 -111.2094 268° West 360 414 38,000  Level Albuquerque Center
Mon 03:00:24 PM 35.1236 -111.3297 266° West 357 411 38,000  Level Albuquerque Center
Mon 03:01:26 PM 35.1181 -111.4517 267° West 360 414 38,000  Level Albuquerque Center
Mon 03:02:28 PM 35.1133 -111.5736 267° West 361 415 38,000  Level Albuquerque Center
Mon 03:03:30 PM 35.1083 -111.6939 267° West 359 413 38,000  Level Albuquerque Center
Mon 03:04:32 PM 35.1014 -111.8258 266° West 362 417 38,000  Level Albuquerque Center
Mon 03:05:34 PM 35.0964 -111.9489 267° West 365 420 38,000  Level Albuquerque Center
Mon 03:06:36 PM 35.0883 -112.0972 266° West 366 421 38,000  Level Albuquerque Center
Mon 03:07:38 PM 35.0825 -112.2225 267° West 370 426 38,000  Level Albuquerque Center
Mon 03:08:40 PM 35.0761 -112.3478 266° West 370 426 38,000  Level Albuquerque Center
Mon 03:09:42 PM 35.0697 -112.4739 266° West 372 428 38,000  Level Albuquerque Center
Mon 03:10:44 PM 35.0633 -112.5997 266° West 372 428 38,000  Level Albuquerque Center
Mon 03:11:46 PM 35.0567 -112.7264 266° West 373 429 38,000  Level Albuquerque Center
Mon 03:12:48 PM 35.0489 -112.8539 266° West 375 432 38,000  Level Albuquerque Center
Mon 03:13:50 PM 35.0408 -113.0075 266° West 376 433 38,000  Level Albuquerque Center
Mon 03:14:52 PM 35.0328 -113.1342 266° West 374 430 38,000  Level Albuquerque Center
Mon 03:15:54 PM 35.0258 -113.2622 266° West 376 433 38,000  Level Albuquerque Center
Mon 03:16:55 PM 35.0178 -113.3889 266° West 376 433 38,000  Level Albuquerque Center
Mon 03:17:57 PM 35.0097 -113.5172 266° West 379 436 38,000  Level Albuquerque Center
Mon 03:18:59 PM 35.0022 -113.6442 266° West 378 435 38,000  Level Albuquerque Center
Mon 03:20:09 PM 34.9933 -113.7969 266° West 380 437 38,000  Level Los Angeles Center
Mon 03:21:11 PM 34.9853 -113.9247 266° West 381 438 38,000 -290 Level Los Angeles Center
Mon 03:22:13 PM 34.9753 -114.0606 265° West 377 434 37,400 -677 Descending Los Angeles Center
Mon 03:23:15 PM 34.9678 -114.1836 266° West 368 423 36,600 -774 Descending Los Angeles Center
Mon 03:24:17 PM 34.9583 -114.3317 266° West 365 420 35,800 -726 Descending Los Angeles Center
Mon 03:25:19 PM 34.9497 -114.4581 265° West 372 428 35,100 -672 Descending Los Angeles Center
Mon 03:26:22 PM 34.9411 -114.5897 265° West 385 443 34,400 -528 Descending Los Angeles Center
Mon 03:27:24 PM 34.9319 -114.7222 265° West 391 450 34,000 -194 Descending Los Angeles Center
Mon 03:28:26 PM 34.9225 -114.8572 265° West 398 458 34,000  Level Los Angeles Center
Mon 03:29:28 PM 34.9133 -114.9903 265° West 395 455 34,000  Level Los Angeles Center
Mon 03:30:30 PM 34.9017 -115.1528 265° West 400 460 34,000 -242 Level Los Angeles Center
Mon 03:31:32 PM 34.8908 -115.2864 264° West 397 457 33,500 -871 Descending Los Angeles Center
Mon 03:32:34 PM 34.8811 -115.4189 265° West 393 452 32,200 -1,210 Descending Los Angeles Center
Mon 03:33:36 PM 34.8714 -115.5508 265° West 392 451 31,000 -1,161 Descending Los Angeles Center
Mon 03:34:38 PM 34.8614 -115.6872 265° West 398 458 29,800 -1,152 Descending Los Angeles Center
Mon 03:35:41 PM 34.8503 -115.8250 264° West 406 467 28,600 -1,152 Descending Los Angeles Center
Mon 03:36:43 PM 34.8392 -115.9667 265° West 416 479 27,400 -1,306 Descending Los Angeles Center
Mon 03:37:45 PM 34.8228 -116.1392 263° West 423 487 25,900 -1,306 Descending Los Angeles Center
Mon 03:38:47 PM 34.8122 -116.2764 265° West 416 479 24,700 -1,065 Descending Los Angeles Center
Mon 03:39:49 PM 34.8019 -116.4042 264° West 391 450 23,700 -968 Descending Los Angeles Center
Mon 03:40:51 PM 34.7911 -116.5275 264° West 372 428 22,700 -823 Descending Los Angeles Center
Mon 03:41:53 PM 34.7792 -116.6536 263° West 375 432 22,000 -333 Descending Los Angeles Center
Mon 03:42:57 PM 34.7653 -116.7836 263° West 385 443 22,000  Level Los Angeles Center
Mon 03:43:58 PM 34.7500 -116.9469 264° West 401 461 22,000 -683 Level Los Angeles Center
Mon 03:45:00 PM 34.7350 -117.0811 262° West 401 461 20,600 -1,645 Descending Los Angeles Center
Mon 03:46:02 PM 34.7214 -117.2114 263° West 391 450 18,600 -1,839 Descending Los Angeles Center
Mon 03:47:04 PM 34.7086 -117.3411 263° West 386 444 16,800 -1,790 Descending Los Angeles Center
Mon 03:48:06 PM 34.6956 -117.4703 263° West 385 443 14,900 -1,355 Descending Los Angeles Center
Mon 03:49:08 PM 34.6819 -117.5950 262° West 372 428 14,000 -532 Descending Los Angeles Center
Mon 03:50:10 PM 34.6669 -117.7231 262° West 379 436 13,800 -680 Descending Los Angeles Center
Mon 03:52:00 PM 34.6333 -117.9310 270° West  Level FlightAware Approximate
Mon 03:54:17 PM 34.5833 -118.2333 165° South 308 354 10,500  Level Southern California TRACON
Mon 03:55:12 PM 34.5667 -118.3167 256° West 282 325 8,200 -1,878 Descending Southern California TRACON
Mon 03:56:12 PM 34.5500 -118.4000 256° West 266 306 6,900 -650 Descending Southern California TRACON
Mon 03:57:12 PM 34.5333 -118.4833 256° West 265 305 6,900 -300 Level Southern California TRACON
Mon 03:58:12 PM 34.4667 -118.5167 202° Southwest 259 298 6,300 -952 Descending Southern California TRACON
Mon 03:59:00 PM 34.3991 -118.5441 165° South  Level FlightAware Approximate
Mon 03:59:18 PM 34.3833 -118.5167 180° South 255 293 4,900  Level Southern California TRACON
Mon 04:00:13 PM 34.3333 -118.5000 165° South 219 252 3,900 -1,200 Descending Southern California TRACON
Mon 04:01:13 PM 34.2833 -118.5000 180° South 167 192 2,600 -1,200 Descending Southern California TRACON
Mon 04:02:13 PM 34.2333 -118.5000 180° South 154 177 1,500 -1,100 Descending Southern California TRACON
Mon 04:04:00 PM 34.2098 -118.4900 180° South  Level Estimated
Mon 04:11:00 PM 34.2098 -118.4900 180° South  Level Estimated

Login

Don't have an account? Register now (free) for customized features, flight alerts, and more!